Time;durP1;ratioP1;P1;durP2;ratioP2;P2;SDS_P1;SDS_P2;PMS_P1;PMS_P2;Temp;Humidity;BMP_temperature;BMP_pressure;BME280_temperature;BME280_humidity;BME280_pressure;Samples;Min_cycle;Max_cycle;Signal;HPM_P1;HPM_P2
2022/02/26 00:01:37;;;;;;;7.10;2.60;;;;;;;;;;5014373;28;20211;-83
2022/02/26 00:04:05;;;;;;;7.00;3.33;;;;;;;;;;5016432;28;20227;-82
2022/02/26 00:06:32;;;;;;;6.05;2.65;;;;;;;;;;5017011;28;20234;-82
2022/02/26 00:09:00;;;;;;;9.27;2.65;;;;;;;;;;5018428;28;20211;-81
2022/02/26 00:11:27;;;;;;;4.15;2.22;;;;;;;;;;5016748;28;20222;-83
2022/02/26 00:13:54;;;;;;;7.13;3.05;;;;;;;;;;5018139;28;20206;-83
2022/02/26 00:16:21;;;;;;;3.92;2.22;;;;;;;;;;5016751;28;20633;-83
2022/02/26 00:18:50;;;;;;;6.00;1.83;;;;;;;;;;5016017;28;20210;-83
2022/02/26 00:21:17;;;;;;;7.47;2.10;;;;;;;;;;5015064;28;20215;-83
2022/02/26 00:23:45;;;;;;;9.00;3.13;;;;;;;;;;5015237;28;20231;-83
2022/02/26 00:26:12;;;;;;;3.83;2.10;;;;;;;;;;5015100;28;20219;-82
2022/02/26 00:28:39;;;;;;;4.78;2.47;;;;;;;;;;5015191;28;20198;-83
2022/02/26 00:31:07;;;;;;;5.28;2.72;;;;;;;;;;5014776;28;20207;-83
2022/02/26 00:33:34;;;;;;;12.00;2.85;;;;;;;;;;5014541;28;20199;-84
2022/02/26 00:36:03;;;;;;;7.18;3.42;;;;;;;;;;5015042;28;20607;-83
2022/02/26 00:38:30;;;;;;;13.35;3.97;;;;;;;;;;5015134;28;20214;-83
2022/02/26 00:40:57;;;;;;;8.27;3.53;;;;;;;;;;5016658;28;20269;-82
2022/02/26 00:43:25;;;;;;;7.10;3.30;;;;;;;;;;5017197;28;20664;-83
2022/02/26 00:45:53;;;;;;;10.25;3.05;;;;;;;;;;5016986;28;20227;-83
2022/02/26 00:49:46;;;;;;;7.78;2.72;;;;;;;;;;5018470;28;20203;-84
2022/02/26 00:51:08;;;;;;;17.15;4.53;;;;;;;;;;5016486;28;20199;-83
2022/02/26 00:53:36;;;;;;;12.90;3.80;;;;;;;;;;5014765;28;20207;-83
2022/02/26 00:56:03;;;;;;;9.20;2.63;;;;;;;;;;5014712;28;20223;-82
2022/02/26 00:58:31;;;;;;;7.53;2.53;;;;;;;;;;5014910;28;20242;-83
2022/02/26 01:00:58;;;;;;;6.95;2.97;;;;;;;;;;5014911;28;20210;-82
2022/02/26 01:03:25;;;;;;;9.88;3.72;;;;;;;;;;5014267;28;20202;-82
2022/02/26 01:05:52;;;;;;;8.52;2.60;;;;;;;;;;5014538;28;20226;-83
2022/02/26 01:08:21;;;;;;;5.90;2.88;;;;;;;;;;5014343;28;20231;-83
2022/02/26 01:10:49;;;;;;;4.90;2.63;;;;;;;;;;5014914;28;20210;-83
2022/02/26 01:13:16;;;;;;;8.45;3.45;;;;;;;;;;5013782;28;20194;-83
2022/02/26 01:15:43;;;;;;;5.57;2.60;;;;;;;;;;5014702;28;20222;-84
2022/02/26 01:18:10;;;;;;;6.63;2.75;;;;;;;;;;5013806;28;20203;-83
2022/02/26 01:20:38;;;;;;;5.13;2.95;;;;;;;;;;5014629;28;20210;-83
2022/02/26 01:23:05;;;;;;;10.02;3.03;;;;;;;;;;5014777;28;20269;-83
2022/02/26 01:25:34;;;;;;;11.13;3.65;;;;;;;;;;5013956;28;20226;-82
2022/02/26 01:28:01;;;;;;;8.60;3.92;;;;;;;;;;5014998;28;20203;-83
2022/02/26 01:30:28;;;;;;;6.75;2.75;;;;;;;;;;5013732;28;20203;-83
2022/02/26 01:32:56;;;;;;;5.75;3.25;;;;;;;;;;5013184;28;20337;-83
2022/02/26 01:35:23;;;;;;;7.38;3.65;;;;;;;;;;5013969;28;20230;-83
2022/02/26 01:37:51;;;;;;;7.70;4.30;;;;;;;;;;5014609;28;20710;-82
2022/02/26 01:40:18;;;;;;;5.63;3.03;;;;;;;;;;5014018;28;20296;-83
2022/02/26 01:42:47;;;;;;;8.23;3.50;;;;;;;;;;5013537;28;20269;-83
2022/02/26 01:45:17;;;;;;;8.35;3.67;;;;;;;;;;5014019;28;20226;-83
2022/02/26 01:47:44;;;;;;;8.82;2.90;;;;;;;;;;5014322;28;20206;-83
2022/02/26 01:50:13;;;;;;;8.82;2.38;;;;;;;;;;5013985;28;20203;-82
2022/02/26 01:52:42;;;;;;;5.55;2.83;;;;;;;;;;5013742;28;20207;-83
2022/02/26 01:55:11;;;;;;;7.20;3.22;;;;;;;;;;5013815;28;20225;-83
2022/02/26 01:57:38;;;;;;;8.75;3.70;;;;;;;;;;5013694;28;20195;-82
2022/02/26 02:00:11;;;;;;;9.43;4.35;;;;;;;;;;5013969;28;20207;-82
2022/02/26 02:02:39;;;;;;;10.80;3.15;;;;;;;;;;5013348;28;20199;-83
2022/02/26 02:05:08;;;;;;;7.43;3.28;;;;;;;;;;5013729;28;20235;-83
2022/02/26 02:07:35;;;;;;;11.02;3.83;;;;;;;;;;5014123;28;20211;-82
2022/02/26 02:10:04;;;;;;;12.63;3.65;;;;;;;;;;5013434;28;20203;-83
2022/02/26 02:12:31;;;;;;;6.60;3.08;;;;;;;;;;5013522;28;20686;-82
2022/02/26 02:14:59;;;;;;;6.63;2.67;;;;;;;;;;5013999;28;20209;-83
2022/02/26 02:17:27;;;;;;;10.90;3.97;;;;;;;;;;5013815;28;20572;-83
2022/02/26 02:19:55;;;;;;;8.40;3.20;;;;;;;;;;5016352;28;20261;-83
2022/02/26 02:22:24;;;;;;;9.90;2.72;;;;;;;;;;5017483;28;20210;-83
2022/02/26 02:24:51;;;;;;;12.95;2.75;;;;;;;;;;5016735;28;20222;-82
2022/02/26 02:27:19;;;;;;;11.05;4.15;;;;;;;;;;5017867;28;20238;-83
2022/02/26 02:29:47;;;;;;;9.52;3.97;;;;;;;;;;5017132;28;20202;-83
2022/02/26 02:32:14;;;;;;;9.30;2.72;;;;;;;;;;5017059;28;20209;-82
2022/02/26 02:34:42;;;;;;;10.77;3.30;;;;;;;;;;5017274;28;20203;-82
2022/02/26 02:37:11;;;;;;;8.55;3.92;;;;;;;;;;5017107;28;20214;-82
2022/02/26 02:39:43;;;;;;;14.38;4.55;;;;;;;;;;5017353;28;20214;-82
2022/02/26 02:42:10;;;;;;;7.55;4.47;;;;;;;;;;5017040;28;20203;-82
2022/02/26 02:44:38;;;;;;;7.93;2.70;;;;;;;;;;5017014;28;20266;-83
2022/02/26 02:47:06;;;;;;;5.45;2.50;;;;;;;;;;5016918;28;20225;-84
2022/02/26 02:49:33;;;;;;;12.13;3.30;;;;;;;;;;5017050;28;20214;-84
2022/02/26 02:52:01;;;;;;;8.93;3.55;;;;;;;;;;5016532;28;20667;-83
2022/02/26 02:54:28;;;;;;;5.88;3.05;;;;;;;;;;5016412;28;20205;-82
2022/02/26 02:56:57;;;;;;;10.52;3.00;;;;;;;;;;5016901;28;20227;-82
2022/02/26 02:59:25;;;;;;;6.97;3.72;;;;;;;;;;5016650;28;20214;-82
2022/02/26 03:01:52;;;;;;;8.90;3.70;;;;;;;;;;5016565;28;20679;-82
2022/02/26 03:04:19;;;;;;;7.75;3.33;;;;;;;;;;5016267;28;20257;-82
2022/02/26 03:06:47;;;;;;;2.55;2.10;;;;;;;;;;5016210;28;20227;-83
2022/02/26 03:09:14;;;;;;;9.30;3.50;;;;;;;;;;5016545;28;20203;-83
2022/02/26 03:11:41;;;;;;;8.00;3.40;;;;;;;;;;5015944;28;20213;-83
2022/02/26 03:14:10;;;;;;;11.13;4.93;;;;;;;;;;5016498;28;20203;-82
2022/02/26 03:16:38;;;;;;;7.88;3.10;;;;;;;;;;5016259;28;20223;-82
2022/02/26 03:19:05;;;;;;;9.77;2.95;;;;;;;;;;5016251;28;20218;-83
2022/02/26 03:21:33;;;;;;;8.70;3.75;;;;;;;;;;5016279;28;20203;-82
2022/02/26 03:24:00;;;;;;;9.02;5.13;;;;;;;;;;5016360;28;20203;-83
2022/02/26 03:26:27;;;;;;;7.40;3.20;;;;;;;;;;5016138;28;20619;-83
2022/02/26 03:28:55;;;;;;;6.90;3.65;;;;;;;;;;5015815;28;20203;-82
2022/02/26 03:31:23;;;;;;;6.95;2.97;;;;;;;;;;5015954;28;20207;-84
2022/02/26 03:33:50;;;;;;;7.35;4.47;;;;;;;;;;5015746;28;20211;-82
2022/02/26 03:36:18;;;;;;;8.95;4.60;;;;;;;;;;5016021;28;20230;-82
2022/02/26 03:38:45;;;;;;;6.22;3.08;;;;;;;;;;5016034;28;20214;-82
2022/02/26 03:41:14;;;;;;;8.55;3.53;;;;;;;;;;5015759;28;20261;-82
2022/02/26 03:43:42;;;;;;;6.10;3.20;;;;;;;;;;5015566;28;20209;-82
2022/02/26 03:46:09;;;;;;;11.75;3.40;;;;;;;;;;5015521;28;20691;-83
2022/02/26 03:48:39;;;;;;;7.75;3.17;;;;;;;;;;5015689;28;20590;-82
2022/02/26 03:51:07;;;;;;;11.43;5.57;;;;;;;;;;5015640;28;20211;-84
2022/02/26 03:53:34;;;;;;;7.78;4.25;;;;;;;;;;5015225;28;20207;-82
2022/02/26 03:56:02;;;;;;;7.43;3.72;;;;;;;;;;5014773;28;20274;-83
2022/02/26 03:58:29;;;;;;;6.28;2.85;;;;;;;;;;5015499;28;20574;-82
2022/02/26 04:00:56;;;;;;;7.85;3.60;;;;;;;;;;5015805;28;20260;-82
2022/02/26 04:03:24;;;;;;;13.43;4.00;;;;;;;;;;5015304;28;20618;-81
2022/02/26 04:05:52;;;;;;;11.55;4.18;;;;;;;;;;5016107;28;20226;-81
2022/02/26 04:08:20;;;;;;;9.18;4.22;;;;;;;;;;5015808;28;20736;-81
2022/02/26 04:10:47;;;;;;;8.75;3.50;;;;;;;;;;5015883;28;20328;-80
2022/02/26 04:13:14;;;;;;;11.80;3.28;;;;;;;;;;5015981;28;20206;-81
2022/02/26 04:15:41;;;;;;;6.57;3.38;;;;;;;;;;5015876;28;20221;-80
2022/02/26 04:18:09;;;;;;;13.27;4.32;;;;;;;;;;5015578;28;20219;-81
2022/02/26 04:20:36;;;;;;;10.95;3.88;;;;;;;;;;5016118;28;20214;-81
2022/02/26 04:23:05;;;;;;;9.02;3.45;;;;;;;;;;5015735;28;20729;-80
2022/02/26 04:25:32;;;;;;;10.52;3.50;;;;;;;;;;5015728;28;20258;-82
2022/02/26 04:27:59;;;;;;;9.45;3.17;;;;;;;;;;5016027;28;20249;-81
2022/02/26 04:30:26;;;;;;;14.25;4.25;;;;;;;;;;5015378;28;20258;-81
2022/02/26 04:32:54;;;;;;;7.65;3.83;;;;;;;;;;5015892;28;20338;-81
2022/02/26 04:35:21;;;;;;;6.13;2.75;;;;;;;;;;5015513;28;20605;-81
2022/02/26 04:37:49;;;;;;;6.15;2.70;;;;;;;;;;5015844;28;20203;-81
2022/02/26 04:40:18;;;;;;;16.77;4.50;;;;;;;;;;5015273;28;20721;-81
2022/02/26 04:42:45;;;;;;;21.80;4.90;;;;;;;;;;5014369;28;20199;-81
2022/02/26 04:45:14;;;;;;;9.45;3.55;;;;;;;;;;5014749;28;20278;-81
2022/02/26 04:47:43;;;;;;;13.10;3.53;;;;;;;;;;5015140;28;20650;-80
2022/02/26 04:50:13;;;;;;;12.05;3.72;;;;;;;;;;5014954;28;20203;-81
2022/02/26 04:52:41;;;;;;;4.32;2.97;;;;;;;;;;5014987;28;20203;-81
2022/02/26 04:55:10;;;;;;;13.77;4.15;;;;;;;;;;5014209;28;20219;-81
2022/02/26 04:57:38;;;;;;;7.30;3.63;;;;;;;;;;5014890;28;20206;-81
2022/02/26 05:00:09;;;;;;;8.02;3.47;;;;;;;;;;5014708;28;20206;-81
2022/02/26 05:02:37;;;;;;;8.20;2.85;;;;;;;;;;5014552;28;20667;-80
2022/02/26 05:05:05;;;;;;;9.77;3.72;;;;;;;;;;5014515;28;20211;-80
2022/02/26 05:07:32;;;;;;;6.18;3.63;;;;;;;;;;5014607;28;20226;-80
2022/02/26 05:09:59;;;;;;;9.05;3.90;;;;;;;;;;5014874;28;20627;-81
2022/02/26 05:12:27;;;;;;;7.85;3.05;;;;;;;;;;5013853;28;20214;-81
2022/02/26 05:14:55;;;;;;;9.93;3.47;;;;;;;;;;5014460;28;20206;-81
2022/02/26 05:17:23;;;;;;;8.95;3.63;;;;;;;;;;5014751;28;20226;-80
2022/02/26 05:19:50;;;;;;;12.48;4.45;;;;;;;;;;5014389;28;20206;-81
2022/02/26 05:22:17;;;;;;;3.92;2.80;;;;;;;;;;5014040;28;20206;-81
2022/02/26 05:24:45;;;;;;;9.57;3.63;;;;;;;;;;5014214;28;20202;-80
2022/02/26 05:27:12;;;;;;;9.38;4.13;;;;;;;;;;5014022;28;20699;-81
2022/02/26 05:29:39;;;;;;;14.68;3.28;;;;;;;;;;5014781;28;20206;-81
2022/02/26 05:32:09;;;;;;;9.68;4.43;;;;;;;;;;5014313;28;20203;-80
2022/02/26 05:34:37;;;;;;;9.93;4.65;;;;;;;;;;4994587;28;20214;-80
2022/02/26 05:37:04;;;;;;;5.78;3.13;;;;;;;;;;4994226;28;20651;-81
2022/02/26 05:39:32;;;;;;;10.93;3.10;;;;;;;;;;4994389;28;20200;-80
2022/02/26 05:41:59;;;;;;;6.88;3.28;;;;;;;;;;4994070;28;20563;-80
2022/02/26 05:44:26;;;;;;;9.07;3.90;;;;;;;;;;4994336;28;20250;-81
2022/02/26 05:46:54;;;;;;;9.38;2.95;;;;;;;;;;4993969;28;20588;-83
2022/02/26 05:49:24;;;;;;;6.07;3.00;;;;;;;;;;4994674;28;20203;-83
2022/02/26 05:51:51;;;;;;;7.40;3.20;;;;;;;;;;4995187;28;20883;-83
2022/02/26 05:54:19;;;;;;;5.68;2.38;;;;;;;;;;4996687;28;20294;-83
2022/02/26 05:56:46;;;;;;;8.70;2.90;;;;;;;;;;4998834;28;20306;-83
2022/02/26 05:59:13;;;;;;;9.02;3.20;;;;;;;;;;4998765;28;20226;-81
2022/02/26 06:01:41;;;;;;;5.43;2.90;;;;;;;;;;4999230;28;20211;-83
2022/02/26 06:04:08;;;;;;;11.95;4.78;;;;;;;;;;5032146;28;20232;-83
2022/02/26 06:06:37;;;;;;;13.48;3.95;;;;;;;;;;5038684;28;20228;-83
2022/02/26 06:09:04;;;;;;;9.20;3.28;;;;;;;;;;5038362;28;20670;-84
2022/02/26 06:11:31;;;;;;;13.88;5.05;;;;;;;;;;5038099;28;20206;-82
2022/02/26 06:13:59;;;;;;;9.38;4.95;;;;;;;;;;5038657;28;20206;-83
2022/02/26 06:16:26;;;;;;;13.20;3.95;;;;;;;;;;5038656;28;20605;-83
2022/02/26 06:18:53;;;;;;;8.82;2.90;;;;;;;;;;5038739;28;20213;-83
2022/02/26 06:21:21;;;;;;;9.77;3.60;;;;;;;;;;5038529;28;20206;-82
2022/02/26 06:24:19;;;;;;;5.57;2.90;;;;;;;;;;5017507;28;20285;-84
2022/02/26 06:26:47;;;;;;;7.38;3.15;;;;;;;;;;5017730;28;20710;-83
2022/02/26 06:29:14;;;;;;;8.25;3.20;;;;;;;;;;5018285;28;20249;-82
2022/02/26 06:31:41;;;;;;;6.47;2.47;;;;;;;;;;5018067;28;20203;-83
2022/02/26 06:34:08;;;;;;;9.57;3.78;;;;;;;;;;5018252;28;20207;-83
2022/02/26 06:36:37;;;;;;;9.13;2.70;;;;;;;;;;5017657;28;20227;-84
2022/02/26 06:39:06;;;;;;;11.90;3.72;;;;;;;;;;5017849;28;20302;-82
2022/02/26 06:41:35;;;;;;;9.70;2.60;;;;;;;;;;5018187;28;20203;-84
2022/02/26 06:44:03;;;;;;;7.43;3.10;;;;;;;;;;5018197;28;20242;-84
2022/02/26 06:46:30;;;;;;;9.48;3.00;;;;;;;;;;5018775;28;20610;-83
2022/02/26 06:48:58;;;;;;;6.38;2.50;;;;;;;;;;5018743;28;20223;-84
2022/02/26 06:51:25;;;;;;;9.88;4.00;;;;;;;;;;5018682;28;20211;-84
2022/02/26 06:53:52;;;;;;;7.75;3.22;;;;;;;;;;5017855;28;20678;-86
2022/02/26 06:56:19;;;;;;;8.93;3.40;;;;;;;;;;5018304;28;20605;-84
2022/02/26 06:58:48;;;;;;;13.32;3.25;;;;;;;;;;5018787;28;20233;-83
2022/02/26 07:01:15;;;;;;;7.88;3.30;;;;;;;;;;5018067;28;20583;-83
2022/02/26 07:03:43;;;;;;;10.95;3.90;;;;;;;;;;5017194;28;20207;-83
2022/02/26 07:06:10;;;;;;;6.05;3.10;;;;;;;;;;5017268;28;20238;-83
2022/02/26 07:08:37;;;;;;;8.52;3.80;;;;;;;;;;5016730;28;20233;-83
2022/02/26 07:11:05;;;;;;;11.50;5.90;;;;;;;;;;5016933;28;20210;-84
2022/02/26 07:13:32;;;;;;;11.07;3.42;;;;;;;;;;5017054;28;20214;-82
2022/02/26 07:16:01;;;;;;;7.70;3.28;;;;;;;;;;5017147;28;20721;-83
2022/02/26 07:18:28;;;;;;;12.82;2.95;;;;;;;;;;5017040;28;20217;-84
2022/02/26 07:20:56;;;;;;;15.77;3.75;;;;;;;;;;5018423;28;20582;-83
2022/02/26 07:23:23;;;;;;;9.70;4.20;;;;;;;;;;5017811;28;20206;-84
2022/02/26 07:25:50;;;;;;;9.38;3.40;;;;;;;;;;5017765;28;20234;-84
2022/02/26 07:28:17;;;;;;;8.32;3.60;;;;;;;;;;5019103;28;20575;-83
2022/02/26 07:30:46;;;;;;;6.68;3.38;;;;;;;;;;5017305;28;20215;-84
2022/02/26 07:33:14;;;;;;;11.20;3.33;;;;;;;;;;5017972;28;20207;-84
2022/02/26 07:35:41;;;;;;;7.95;3.40;;;;;;;;;;5018004;28;20250;-83
2022/02/26 07:38:09;;;;;;;9.30;3.90;;;;;;;;;;5017584;28;20222;-84
2022/02/26 07:40:36;;;;;;;11.05;3.50;;;;;;;;;;5016988;28;20203;-84
2022/02/26 07:43:04;;;;;;;8.45;3.85;;;;;;;;;;5017485;28;20261;-84
2022/02/26 07:45:31;;;;;;;8.35;4.35;;;;;;;;;;5017479;28;20223;-83
2022/02/26 07:47:58;;;;;;;9.00;4.95;;;;;;;;;;5016922;28;20698;-83
2022/02/26 07:50:27;;;;;;;5.18;3.42;;;;;;;;;;5017302;28;20634;-84
2022/02/26 07:52:54;;;;;;;7.45;3.28;;;;;;;;;;5016760;28;20203;-83
2022/02/26 07:55:21;;;;;;;6.28;2.83;;;;;;;;;;5017729;28;20234;-84
2022/02/26 07:57:49;;;;;;;6.57;2.80;;;;;;;;;;5016846;28;20207;-84
2022/02/26 08:00:16;;;;;;;10.10;3.28;;;;;;;;;;5017449;28;20215;-83
2022/02/26 08:02:44;;;;;;;12.65;4.80;;;;;;;;;;5017499;28;20215;-84
2022/02/26 08:05:11;;;;;;;8.63;3.78;;;;;;;;;;5017420;28;20230;-84
2022/02/26 08:07:40;;;;;;;11.20;4.07;;;;;;;;;;5017349;28;20634;-84
2022/02/26 08:10:08;;;;;;;8.90;4.10;;;;;;;;;;5017039;28;20203;-84
2022/02/26 08:12:36;;;;;;;9.18;3.40;;;;;;;;;;5016879;28;20211;-84
2022/02/26 08:15:04;;;;;;;9.80;3.63;;;;;;;;;;5018293;28;20235;-84
2022/02/26 08:17:31;;;;;;;9.80;4.35;;;;;;;;;;5017075;28;20246;-84
2022/02/26 08:19:58;;;;;;;6.13;3.58;;;;;;;;;;5017583;28;20215;-84
2022/02/26 08:22:25;;;;;;;6.80;3.85;;;;;;;;;;5017436;28;20213;-84
2022/02/26 08:24:54;;;;;;;7.30;4.10;;;;;;;;;;5017104;28;20258;-83
2022/02/26 08:27:21;;;;;;;6.28;2.90;;;;;;;;;;5017589;28;20663;-84
2022/02/26 08:29:49;;;;;;;7.13;3.78;;;;;;;;;;5018022;28;20750;-84
2022/02/26 08:32:16;;;;;;;9.70;4.07;;;;;;;;;;5018462;28;20671;-85
2022/02/26 08:34:43;;;;;;;8.93;3.45;;;;;;;;;;5019675;28;20242;-84
2022/02/26 08:37:11;;;;;;;9.07;4.75;;;;;;;;;;5020240;28;20235;-84
2022/02/26 08:39:39;;;;;;;8.35;3.83;;;;;;;;;;5019148;28;20211;-85
2022/02/26 08:42:08;;;;;;;12.02;4.00;;;;;;;;;;5018556;28;20206;-84
2022/02/26 08:44:36;;;;;;;6.40;3.83;;;;;;;;;;5019174;28;20690;-84
2022/02/26 08:47:04;;;;;;;10.43;3.50;;;;;;;;;;5018291;28;20265;-84
2022/02/26 08:49:31;;;;;;;14.05;4.85;;;;;;;;;;5019265;28;20235;-84
2022/02/26 08:51:58;;;;;;;11.18;4.30;;;;;;;;;;5019125;28;20218;-84
2022/02/26 08:54:26;;;;;;;9.68;4.18;;;;;;;;;;5018001;28;20281;-84
2022/02/26 08:56:53;;;;;;;11.43;3.92;;;;;;;;;;5018916;28;20227;-83
2022/02/26 08:59:22;;;;;;;9.70;4.05;;;;;;;;;;5018567;28;20206;-84
2022/02/26 09:01:50;;;;;;;7.88;3.45;;;;;;;;;;5018338;28;20661;-83
2022/02/26 09:04:17;;;;;;;9.88;3.80;;;;;;;;;;5018122;28;20206;-84
2022/02/26 09:06:46;;;;;;;12.80;4.25;;;;;;;;;;5018682;28;20299;-84
2022/02/26 09:09:13;;;;;;;9.40;3.50;;;;;;;;;;5016906;28;20249;-83
2022/02/26 09:11:42;;;;;;;13.25;3.78;;;;;;;;;;5015911;28;20211;-83
2022/02/26 09:14:10;;;;;;;6.82;3.80;;;;;;;;;;5017439;28;20207;-84
2022/02/26 09:16:39;;;;;;;5.93;3.38;;;;;;;;;;5016841;28;20223;-82
2022/02/26 09:19:06;;;;;;;9.90;4.03;;;;;;;;;;5016021;28;20219;-83
2022/02/26 09:21:34;;;;;;;8.57;4.60;;;;;;;;;;5016208;28;20211;-83
2022/02/26 09:24:01;;;;;;;9.02;3.47;;;;;;;;;;5016376;28;20207;-83
2022/02/26 09:26:29;;;;;;;7.13;2.97;;;;;;;;;;5016290;28;20277;-82
2022/02/26 09:28:56;;;;;;;8.15;4.28;;;;;;;;;;5015565;28;20266;-83
2022/02/26 09:31:24;;;;;;;5.65;3.55;;;;;;;;;;5016180;28;20206;-83
2022/02/26 09:33:52;;;;;;;10.57;3.80;;;;;;;;;;5015870;28;20218;-83
2022/02/26 09:36:20;;;;;;;7.28;3.08;;;;;;;;;;5016291;28;20953;-83
2022/02/26 09:38:48;;;;;;;10.40;3.38;;;;;;;;;;5015968;28;20211;-83
2022/02/26 09:41:15;;;;;;;10.13;3.78;;;;;;;;;;5015753;28;20237;-83
2022/02/26 09:43:43;;;;;;;6.45;3.47;;;;;;;;;;5015344;28;20241;-83
2022/02/26 09:46:12;;;;;;;8.38;3.53;;;;;;;;;;5015992;28;20234;-84
2022/02/26 09:48:39;;;;;;;6.00;2.53;;;;;;;;;;5016209;28;20286;-83
2022/02/26 09:51:08;;;;;;;6.40;2.58;;;;;;;;;;5015625;28;20221;-83
2022/02/26 09:53:36;;;;;;;6.32;2.80;;;;;;;;;;5015860;28;20207;-84
2022/02/26 09:56:03;;;;;;;9.13;4.93;;;;;;;;;;5015435;28;20235;-83
2022/02/26 09:58:31;;;;;;;7.70;3.13;;;;;;;;;;5014956;28;20569;-82
2022/02/26 10:00:58;;;;;;;11.38;4.03;;;;;;;;;;5017068;28;20203;-85
2022/02/26 10:03:28;;;;;;;9.70;3.55;;;;;;;;;;5014805;28;20301;-84
2022/02/26 10:06:12;;;;;;;8.30;3.13;;;;;;;;;;5015753;28;20239;-84
2022/02/26 10:08:41;;;;;;;7.15;2.85;;;;;;;;;;5017088;28;20277;-84
2022/02/26 10:11:24;;;;;;;5.07;2.88;;;;;;;;;;5016566;28;20235;-84
2022/02/26 10:13:52;;;;;;;7.20;2.80;;;;;;;;;;5010185;28;20679;-84
2022/02/26 10:16:20;;;;;;;8.13;2.70;;;;;;;;;;5010003;28;20223;-84
2022/02/26 10:18:54;;;;;;;13.13;4.22;;;;;;;;;;5009045;28;20587;-84
2022/02/26 10:21:34;;;;;;;5.55;2.70;;;;;;;;;;5010328;28;20206;-84
2022/02/26 10:24:01;;;;;;;6.03;2.83;;;;;;;;;;5015552;28;20221;-84
2022/02/26 10:26:29;;;;;;;9.52;2.83;;;;;;;;;;5015257;28;20222;-84
2022/02/26 10:29:09;;;;;;;5.35;2.72;;;;;;;;;;5015090;28;20210;-84
2022/02/26 10:31:49;;;;;;;5.28;2.50;;;;;;;;;;5015420;28;20203;-84
2022/02/26 10:34:28;;;;;;;3.95;2.80;;;;;;;;;;5014985;28;20647;-84
2022/02/26 10:37:03;;;;;;;6.85;2.65;;;;;;;;;;5015202;28;20230;-84
2022/02/26 10:39:34;;;;;;;7.30;2.80;;;;;;;;;;5016384;28;20207;-84
2022/02/26 10:42:03;;;;;;;7.60;3.15;;;;;;;;;;5020693;28;20217;-85
2022/02/26 10:44:31;;;;;;;7.25;2.30;;;;;;;;;;5020733;28;20214;-84
2022/02/26 10:47:10;;;;;;;8.95;3.17;;;;;;;;;;5020533;28;20219;-84
2022/02/26 10:49:43;;;;;;;10.60;2.65;;;;;;;;;;5018914;28;20721;-84
2022/02/26 10:52:14;;;;;;;9.32;2.85;;;;;;;;;;5019827;28;20591;-84
2022/02/26 10:54:43;;;;;;;7.28;3.20;;;;;;;;;;5019168;28;20580;-84
2022/02/26 10:57:13;;;;;;;4.95;2.50;;;;;;;;;;5019369;28;20234;-84
2022/02/26 10:59:44;;;;;;;7.32;2.47;;;;;;;;;;5018365;28;20694;-84
2022/02/26 11:02:16;;;;;;;8.40;3.25;;;;;;;;;;5018477;28;20214;-84
2022/02/26 11:04:43;;;;;;;7.38;3.17;;;;;;;;;;5019373;28;20642;-84
2022/02/26 11:07:13;;;;;;;6.80;2.72;;;;;;;;;;5019809;28;20223;-84
2022/02/26 11:09:43;;;;;;;5.70;3.22;;;;;;;;;;5014071;28;20595;-84
2022/02/26 11:12:14;;;;;;;7.30;3.50;;;;;;;;;;5013426;28;20627;-84
2022/02/26 11:14:46;;;;;;;9.70;3.65;;;;;;;;;;5019278;28;20203;-84
2022/02/26 11:17:15;;;;;;;6.00;2.80;;;;;;;;;;5018680;28;20210;-84
2022/02/26 11:19:46;;;;;;;7.72;2.70;;;;;;;;;;5018273;28;20597;-84
2022/02/26 11:22:16;;;;;;;8.82;2.92;;;;;;;;;;5019041;28;20261;-84
2022/02/26 11:24:44;;;;;;;4.35;1.95;;;;;;;;;;5015267;28;20195;-84
2022/02/26 11:27:11;;;;;;;3.80;2.42;;;;;;;;;;5018708;28;20234;-84
2022/02/26 11:29:41;;;;;;;6.45;3.30;;;;;;;;;;5018364;28;20215;-84
2022/02/26 11:32:15;;;;;;;6.90;2.25;;;;;;;;;;5018047;28;20212;-84
2022/02/26 11:34:48;;;;;;;3.65;2.42;;;;;;;;;;5017415;28;20207;-84
2022/02/26 11:37:23;;;;;;;7.15;2.58;;;;;;;;;;5018597;28;20261;-84
2022/02/26 11:40:12;;;;;;;5.95;2.33;;;;;;;;;;5018104;28;20238;-84
2022/02/26 11:42:41;;;;;;;3.08;2.00;;;;;;;;;;5017852;28;20207;-84
2022/02/26 11:45:11;;;;;;;4.95;2.70;;;;;;;;;;5018131;28;20227;-84
2022/02/26 11:47:43;;;;;;;7.60;3.00;;;;;;;;;;5018127;28;20321;-84
2022/02/26 11:50:17;;;;;;;3.88;2.35;;;;;;;;;;5018463;28;20318;-84
2022/02/26 11:53:00;;;;;;;9.25;2.70;;;;;;;;;;5017270;28;20203;-84
2022/02/26 11:55:55;;;;;;;5.65;2.25;;;;;;;;;;5018938;28;20235;-83
2022/02/26 11:58:34;;;;;;;9.20;2.80;;;;;;;;;;5019849;28;20217;-84
2022/02/26 12:01:18;;;;;;;6.68;3.35;;;;;;;;;;5019089;28;20277;-84
2022/02/26 12:04:23;;;;;;;4.93;2.22;;;;;;;;;;5018458;28;20203;-84
2022/02/26 12:07:00;;;;;;;4.43;2.42;;;;;;;;;;5018991;28;20226;-84
2022/02/26 12:09:31;;;;;;;5.07;2.55;;;;;;;;;;5018313;28;20218;-84
2022/02/26 12:11:58;;;;;;;5.90;2.90;;;;;;;;;;5019301;28;20230;-84
2022/02/26 12:14:30;;;;;;;3.45;2.20;;;;;;;;;;5019192;28;20294;-84
2022/02/26 12:17:10;;;;;;;5.65;3.75;;;;;;;;;;5013068;28;20223;-84
2022/02/26 12:19:52;;;;;;;3.47;2.47;;;;;;;;;;5014044;28;20238;-84
2022/02/26 12:22:23;;;;;;;3.75;1.95;;;;;;;;;;5017611;28;20710;-84
2022/02/26 12:24:54;;;;;;;5.60;2.80;;;;;;;;;;5017817;28;20214;-84
2022/02/26 12:27:48;;;;;;;6.00;2.42;;;;;;;;;;5016270;28;20235;-86
2022/02/26 12:30:18;;;;;;;6.00;2.53;;;;;;;;;;5016042;28;20217;-85
2022/02/26 12:33:26;;;;;;;4.75;2.17;;;;;;;;;;5017189;28;20207;-83
2022/02/26 12:37:19;;;;;;;4.43;1.75;;;;;;;;;;5019031;28;20234;-84
2022/02/26 12:39:51;;;;;;;2.65;1.77;;;;;;;;;;5017104;28;20206;-82
2022/02/26 12:42:30;;;;;;;5.45;2.15;;;;;;;;;;5017379;28;20203;-83
2022/02/26 12:45:00;;;;;;;4.95;2.45;;;;;;;;;;5010254;28;20214;-82
2022/02/26 12:47:29;;;;;;;4.03;2.75;;;;;;;;;;5015675;28;20203;-81
2022/02/26 12:49:57;;;;;;;5.45;2.78;;;;;;;;;;5015806;28;20702;-82
2022/02/26 12:52:26;;;;;;;5.60;2.33;;;;;;;;;;5015916;28;20281;-83
2022/02/26 12:54:54;;;;;;;5.13;2.13;;;;;;;;;;5016990;28;20203;-82
2022/02/26 12:57:23;;;;;;;2.95;1.80;;;;;;;;;;5015973;28;20261;-83
2022/02/26 12:59:50;;;;;;;1.75;1.15;;;;;;;;;;5016227;28;20218;-83
2022/02/26 13:02:17;;;;;;;1.15;1.10;;;;;;;;;;5015936;28;20199;-83
2022/02/26 13:04:53;;;;;;;3.35;1.40;;;;;;;;;;5015896;28;20211;-83
2022/02/26 13:07:25;;;;;;;4.25;1.65;;;;;;;;;;5014954;28;20230;-84
2022/02/26 13:09:57;;;;;;;6.13;2.92;;;;;;;;;;5015041;28;20213;-83
2022/02/26 13:12:34;;;;;;;2.05;1.63;;;;;;;;;;5015334;28;20706;-83
2022/02/26 13:15:16;;;;;;;5.85;2.42;;;;;;;;;;5016457;28;20749;-82
2022/02/26 13:17:49;;;;;;;3.20;2.03;;;;;;;;;;5016481;28;20202;-82
2022/02/26 13:20:26;;;;;;;2.20;1.60;;;;;;;;;;5010261;28;20210;-82
2022/02/26 13:23:04;;;;;;;3.08;1.70;;;;;;;;;;5016344;28;20214;-83
2022/02/26 13:25:38;;;;;;;5.15;1.90;;;;;;;;;;5016047;28;20246;-83
2022/02/26 13:28:08;;;;;;;3.47;1.70;;;;;;;;;;5016411;28;20210;-83
2022/02/26 13:30:37;;;;;;;5.15;2.03;;;;;;;;;;5016220;28;20211;-83
2022/02/26 13:33:05;;;;;;;3.65;1.92;;;;;;;;;;5015524;28;20231;-84
2022/02/26 13:35:34;;;;;;;2.47;1.73;;;;;;;;;;5016396;28;20219;-84
2022/02/26 13:38:07;;;;;;;3.50;1.63;;;;;;;;;;5016812;28;20222;-84
2022/02/26 13:40:34;;;;;;;3.03;1.55;;;;;;;;;;5016425;28;20306;-84
2022/02/26 13:43:10;;;;;;;4.25;2.08;;;;;;;;;;5015860;28;20215;-84
2022/02/26 13:45:40;;;;;;;4.63;2.00;;;;;;;;;;5010143;28;20227;-84
2022/02/26 13:48:18;;;;;;;2.00;1.55;;;;;;;;;;5017246;28;20553;-83
2022/02/26 13:50:49;;;;;;;4.45;2.00;;;;;;;;;;5015683;28;20210;-81
2022/02/26 13:53:19;;;;;;;3.75;1.70;;;;;;;;;;5015676;28;20230;-83
2022/02/26 13:55:50;;;;;;;4.85;2.70;;;;;;;;;;5016764;28;20223;-83
2022/02/26 13:58:27;;;;;;;3.78;1.88;;;;;;;;;;5016548;28;20257;-82
2022/02/26 14:01:05;;;;;;;3.17;1.50;;;;;;;;;;5016689;28;20253;-82
2022/02/26 14:03:38;;;;;;;2.72;2.13;;;;;;;;;;5016312;28;20221;-84
2022/02/26 14:06:06;;;;;;;4.50;2.25;;;;;;;;;;5016787;28;20235;-83
2022/02/26 14:08:33;;;;;;;3.05;2.53;;;;;;;;;;5016466;28;20199;-83
2022/02/26 14:11:01;;;;;;;2.85;1.77;;;;;;;;;;5015208;28;20203;-83
2022/02/26 14:13:30;;;;;;;2.70;2.30;;;;;;;;;;5016198;28;20231;-83
2022/02/26 14:15:59;;;;;;;8.25;1.88;;;;;;;;;;5019173;28;20234;-84
2022/02/26 14:18:27;;;;;;;3.80;1.83;;;;;;;;;;5020972;28;20202;-84
2022/02/26 14:20:54;;;;;;;2.75;1.20;;;;;;;;;;5020634;28;20290;-85
2022/02/26 14:23:22;;;;;;;2.85;1.58;;;;;;;;;;5013766;28;20209;-84
2022/02/26 14:25:49;;;;;;;3.50;1.55;;;;;;;;;;5013860;28;20235;-84
2022/02/26 14:28:19;;;;;;;3.40;1.70;;;;;;;;;;5020135;28;20274;-84
2022/02/26 14:30:49;;;;;;;3.40;1.33;;;;;;;;;;5014092;28;20675;-84
2022/02/26 14:33:16;;;;;;;3.67;1.98;;;;;;;;;;5020024;28;20640;-84
2022/02/26 14:35:44;;;;;;;6.40;2.00;;;;;;;;;;5019760;28;20233;-84
2022/02/26 14:38:13;;;;;;;2.38;1.80;;;;;;;;;;5019664;28;20214;-83
2022/02/26 14:40:42;;;;;;;2.65;1.63;;;;;;;;;;5019972;28;20203;-83
2022/02/26 14:43:11;;;;;;;4.55;2.17;;;;;;;;;;5019411;28;20207;-84
2022/02/26 14:45:40;;;;;;;3.40;1.90;;;;;;;;;;5019854;28;20727;-83
2022/02/26 14:48:11;;;;;;;6.38;1.95;;;;;;;;;;5019373;28;20207;-84
2022/02/26 14:50:38;;;;;;;2.38;1.75;;;;;;;;;;5019927;28;20234;-84
2022/02/26 14:53:06;;;;;;;6.18;3.47;;;;;;;;;;5019562;28;20233;-85
2022/02/26 14:55:34;;;;;;;1.67;1.40;;;;;;;;;;5020851;28;20235;-84